Time;durP1;ratioP1;P1;durP2;ratioP2;P2;SDS_P1;SDS_P2;PMS_P1;PMS_P2;Temp;Humidity;BMP_temperature;BMP_pressure;BME280_temperature;BME280_humidity;BME280_pressure;Samples;Min_cycle;Max_cycle;Signal;HPM_P1;HPM_P2
2021/11/26 00:00:58;;;;;;;6.90;1.60;;;4.30;99.90;;;;;;5021523;28;20195;-41
2021/11/26 00:03:24;;;;;;;4.30;1.53;;;4.20;99.90;;;;;;5025480;28;20196;-41
2021/11/26 00:05:51;;;;;;;3.87;1.40;;;4.20;99.90;;;;;;5023157;28;20849;-41
2021/11/26 00:08:18;;;;;;;5.57;1.60;;;4.30;99.90;;;;;;5024114;28;20230;-47
2021/11/26 00:10:44;;;;;;;5.10;1.50;;;4.20;99.90;;;;;;5019793;28;20207;-43
2021/11/26 00:13:12;;;;;;;8.63;1.73;;;4.20;99.90;;;;;;5008645;28;20208;-42
2021/11/26 00:15:41;;;;;;;4.07;1.43;;;4.20;99.90;;;;;;5025337;28;20200;-42
2021/11/26 00:18:10;;;;;;;4.17;1.10;;;4.20;99.90;;;;;;5020422;28;20227;-44
2021/11/26 00:20:38;;;;;;;4.87;1.30;;;4.20;99.90;;;;;;5025277;28;20200;-41
2021/11/26 00:23:07;;;;;;;6.13;1.30;;;4.20;99.90;;;;;;5021273;28;20192;-41
2021/11/26 00:25:33;;;;;;;5.83;1.77;;;4.20;99.90;;;;;;5020860;28;20250;-41
2021/11/26 00:28:00;;;;;;;5.30;1.90;;;4.20;99.90;;;;;;5006942;28;20228;-41
2021/11/26 00:30:27;;;;;;;6.23;1.30;;;4.20;99.90;;;;;;5025033;28;20223;-41
2021/11/26 00:32:55;;;;;;;5.13;1.27;;;4.20;99.90;;;;;;5021531;28;20204;-40
2021/11/26 00:35:21;;;;;;;4.03;1.03;;;4.10;99.90;;;;;;5024783;28;20196;-41
2021/11/26 00:37:48;;;;;;;4.57;1.17;;;4.10;99.90;;;;;;5023364;28;20219;-41
2021/11/26 00:40:15;;;;;;;4.70;1.23;;;4.10;99.90;;;;;;5023544;28;20204;-41
2021/11/26 00:42:43;;;;;;;1.63;0.63;;;4.20;99.90;;;;;;5019582;28;20212;-41
2021/11/26 00:45:11;;;;;;;1.97;0.60;;;4.20;99.90;;;;;;5008028;28;20208;-43
2021/11/26 00:47:37;;;;;;;5.53;0.70;;;4.20;99.90;;;;;;5024450;28;20222;-44
2021/11/26 00:50:07;;;;;;;3.50;1.00;;;4.30;99.90;;;;;;5020656;28;20223;-40
2021/11/26 00:52:34;;;;;;;3.30;0.67;;;4.30;99.90;;;;;;5024502;28;20200;-42
2021/11/26 00:55:01;;;;;;;3.27;0.50;;;4.30;99.90;;;;;;5020882;28;20200;-41
2021/11/26 00:57:27;;;;;;;2.87;0.80;;;4.30;99.90;;;;;;5019979;28;20231;-41
2021/11/26 00:59:54;;;;;;;2.40;0.50;;;4.30;99.90;;;;;;5010411;28;20195;-41
2021/11/26 01:02:21;;;;;;;2.47;0.90;;;4.30;99.90;;;;;;5019889;28;20661;-43
2021/11/26 01:04:47;;;;;;;1.57;0.40;;;4.30;99.90;;;;;;5022415;28;20203;-40
2021/11/26 01:07:16;;;;;;;2.87;0.60;;;4.20;99.90;;;;;;5022237;28;20200;-41
2021/11/26 01:09:42;;;;;;;2.53;0.70;;;4.20;99.90;;;;;;5023669;28;20234;-41
2021/11/26 01:12:09;;;;;;;5.30;0.80;;;4.20;99.90;;;;;;5016302;28;20208;-41
2021/11/26 01:14:36;;;;;;;2.20;0.60;;;4.20;99.90;;;;;;5024085;28;20223;-40
2021/11/26 01:17:03;;;;;;;1.57;0.70;;;4.30;99.90;;;;;;5005989;28;20845;-40
2021/11/26 01:19:29;;;;;;;2.53;0.60;;;4.30;99.90;;;;;;5024130;28;20196;-40
2021/11/26 01:21:56;;;;;;;3.03;1.03;;;4.20;99.90;;;;;;5020438;28;20215;-43
2021/11/26 01:24:24;;;;;;;3.63;0.80;;;4.30;99.90;;;;;;5023904;28;20211;-41
2021/11/26 01:26:51;;;;;;;3.47;0.83;;;4.30;99.90;;;;;;5019810;28;20612;-42
2021/11/26 01:29:17;;;;;;;4.47;1.00;;;4.30;99.90;;;;;;5020427;28;20216;-44
2021/11/26 01:31:45;;;;;;;4.17;0.80;;;4.30;99.90;;;;;;5008790;28;20681;-41
2021/11/26 01:34:12;;;;;;;1.23;0.50;;;4.30;99.90;;;;;;5021367;28;20188;-44
2021/11/26 01:36:40;;;;;;;5.07;0.63;;;4.30;99.90;;;;;;5024015;28;20704;-44
2021/11/26 01:39:07;;;;;;;2.17;0.70;;;4.30;99.90;;;;;;5020520;28;20227;-41
2021/11/26 01:41:41;;;;;;;3.83;0.70;;;4.30;99.90;;;;;;5023625;28;20203;-42
2021/11/26 01:44:07;;;;;;;7.17;0.80;;;4.30;99.90;;;;;;5015687;28;20331;-43
2021/11/26 01:46:39;;;;;;;3.83;0.80;;;4.30;99.90;;;;;;5023851;28;20199;-41
2021/11/26 01:49:05;;;;;;;3.13;1.13;;;4.30;99.90;;;;;;5006818;28;20929;-43
2021/11/26 01:51:32;;;;;;;4.23;0.87;;;4.30;99.90;;;;;;5023438;28;20246;-41
2021/11/26 01:53:59;;;;;;;4.60;0.80;;;4.30;99.90;;;;;;5019655;28;20195;-41
2021/11/26 01:56:26;;;;;;;3.37;1.07;;;4.30;99.90;;;;;;5023674;28;20270;-41
2021/11/26 01:58:54;;;;;;;1.10;0.87;;;4.30;99.90;;;;;;5016510;28;20220;-43
2021/11/26 02:01:20;;;;;;;4.77;1.30;;;4.30;99.90;;;;;;5022998;28;20204;-41
2021/11/26 02:03:47;;;;;;;6.73;1.27;;;4.30;99.90;;;;;;5007613;28;20210;-41
2021/11/26 02:06:14;;;;;;;4.27;1.00;;;4.30;99.90;;;;;;5021235;28;20191;-42
2021/11/26 02:08:40;;;;;;;4.23;1.30;;;4.30;99.90;;;;;;5022887;28;20236;-41
2021/11/26 02:11:07;;;;;;;6.90;1.30;;;4.30;99.90;;;;;;5019984;28;20211;-41
2021/11/26 02:13:34;;;;;;;4.20;1.50;;;4.30;99.90;;;;;;5023171;28;20196;-42
2021/11/26 02:16:04;;;;;;;3.10;1.40;;;4.30;99.90;;;;;;5014506;28;20200;-40
2021/11/26 02:18:31;;;;;;;3.67;1.10;;;4.30;99.90;;;;;;5009312;28;20248;-44
2021/11/26 02:20:59;;;;;;;4.53;1.80;;;4.30;99.90;;;;;;5018952;28;20203;-41
2021/11/26 02:23:26;;;;;;;5.73;1.50;;;4.30;99.90;;;;;;5023014;28;20207;-41
2021/11/26 02:25:53;;;;;;;6.23;1.80;;;4.30;99.90;;;;;;5020663;28;20672;-41
2021/11/26 02:28:20;;;;;;;4.17;1.47;;;4.30;99.90;;;;;;5022295;28;20230;-46
2021/11/26 02:30:47;;;;;;;7.77;2.20;;;4.30;99.90;;;;;;5017154;28;20788;-41
2021/11/26 02:33:15;;;;;;;7.07;2.43;;;4.30;99.90;;;;;;5020923;28;20194;-43
2021/11/26 02:35:43;;;;;;;6.40;2.20;;;4.30;99.90;;;;;;5008532;28;20204;-41
2021/11/26 02:38:13;;;;;;;4.20;2.27;;;4.30;99.90;;;;;;5020050;28;20208;-42
2021/11/26 02:40:43;;;;;;;3.93;2.40;;;4.30;99.90;;;;;;5022925;28;20202;-42
2021/11/26 02:43:11;;;;;;;8.27;2.93;;;4.30;99.90;;;;;;5013175;28;20204;-41
2021/11/26 02:45:39;;;;;;;6.03;2.23;;;4.30;99.90;;;;;;5016071;28;20199;-41
2021/11/26 02:48:06;;;;;;;7.60;2.27;;;4.30;99.90;;;;;;5019007;28;20219;-41
2021/11/26 02:50:33;;;;;;;3.80;2.53;;;4.30;99.90;;;;;;5007341;28;20215;-43
2021/11/26 02:53:01;;;;;;;7.30;2.43;;;4.30;99.90;;;;;;5017896;28;20196;-41
2021/11/26 02:55:30;;;;;;;7.73;2.90;;;4.20;99.90;;;;;;5021629;28;20210;-44
2021/11/26 02:57:58;;;;;;;7.33;3.40;;;4.20;99.90;;;;;;5017836;28;20619;-42
2021/11/26 03:00:28;;;;;;;7.00;3.37;;;4.20;99.90;;;;;;5021598;28;20664;-45
2021/11/26 03:02:55;;;;;;;4.70;2.70;;;4.20;99.90;;;;;;5013906;28;20192;-43
2021/11/26 03:05:23;;;;;;;7.50;3.27;;;4.20;99.90;;;;;;5004492;28;20277;-40
2021/11/26 03:07:51;;;;;;;6.40;3.27;;;4.20;99.90;;;;;;5014478;28;20224;-43
2021/11/26 03:10:19;;;;;;;6.27;3.50;;;4.20;99.90;;;;;;5020989;28;20259;-40
2021/11/26 03:12:50;;;;;;;8.43;3.43;;;4.20;99.90;;;;;;5011984;28;20214;-41
2021/11/26 03:17:56;;;;;;;6.63;3.37;;;4.20;99.90;;;;;;5013345;28;20255;-78
2021/11/26 03:20:23;;;;;;;6.50;3.20;;;4.20;99.90;;;;;;5021466;28;20198;-76
2021/11/26 03:22:50;;;;;;;7.53;3.60;;;4.20;99.90;;;;;;5012564;28;20219;-79
2021/11/26 03:25:17;;;;;;;5.90;3.93;;;4.20;99.90;;;;;;5025173;28;20223;-77
2021/11/26 03:27:45;;;;;;;6.23;4.27;;;4.20;99.90;;;;;;5008177;28;20196;-78
2021/11/26 03:30:16;;;;;;;4.40;4.00;;;4.20;99.90;;;;;;5009213;28;20228;-76
2021/11/26 03:32:44;;;;;;;6.73;4.17;;;4.20;99.90;;;;;;5006934;28;20212;-77
2021/11/26 03:35:13;;;;;;;5.13;4.07;;;4.20;99.90;;;;;;5041796;28;20211;-77
2021/11/26 03:37:40;;;;;;;8.57;4.37;;;4.30;99.90;;;;;;5029445;28;20955;-78
2021/11/26 03:40:09;;;;;;;7.77;5.23;;;4.20;99.90;;;;;;5032017;28;20207;-76
2021/11/26 03:42:36;;;;;;;6.83;4.60;;;4.20;99.90;;;;;;5026233;28;20279;-77
2021/11/26 03:45:04;;;;;;;10.93;5.57;;;4.20;99.90;;;;;;5011653;28;20712;-78
2021/11/26 03:47:32;;;;;;;8.53;5.03;;;4.20;99.90;;;;;;5022234;28;20216;-78
2021/11/26 03:49:58;;;;;;;9.57;5.73;;;4.20;99.90;;;;;;5046970;28;20219;-78
2021/11/26 03:52:25;;;;;;;8.47;5.60;;;4.20;99.90;;;;;;5045334;28;20194;-78
2021/11/26 03:54:52;;;;;;;14.50;6.30;;;4.20;99.90;;;;;;5033410;28;20227;-77
2021/11/26 03:57:18;;;;;;;7.33;5.60;;;4.20;99.90;;;;;;5025666;28;20271;-78
2021/11/26 03:59:45;;;;;;;9.00;6.03;;;4.20;99.90;;;;;;5028061;28;20196;-77
2021/11/26 04:02:12;;;;;;;10.60;6.03;;;4.10;99.90;;;;;;5002741;28;20214;-79
2021/11/26 04:04:40;;;;;;;9.27;5.90;;;4.20;99.90;;;;;;5030735;28;20235;-77
2021/11/26 04:07:07;;;;;;;6.23;5.40;;;4.20;99.90;;;;;;5007971;28;20192;-78
2021/11/26 04:09:34;;;;;;;10.30;5.83;;;4.20;99.90;;;;;;5027361;28;20223;-78
2021/11/26 04:12:00;;;;;;;9.60;6.03;;;4.20;99.90;;;;;;5008090;28;20192;-77
2021/11/26 04:14:27;;;;;;;10.83;5.83;;;4.10;99.90;;;;;;5010562;28;20215;-77
2021/11/26 04:16:54;;;;;;;7.17;5.67;;;4.10;99.90;;;;;;5024697;28;20238;-76
2021/11/26 04:19:20;;;;;;;10.43;6.37;;;4.10;99.90;;;;;;5027271;28;20212;-77
2021/11/26 04:21:48;;;;;;;15.23;7.13;;;4.10;99.90;;;;;;5010395;28;20192;-76
2021/11/26 04:24:15;;;;;;;11.50;7.20;;;4.20;99.90;;;;;;5026383;28;20184;-77
2021/11/26 04:26:42;;;;;;;7.87;6.53;;;4.20;99.90;;;;;;5006077;28;20235;-76
2021/11/26 04:29:09;;;;;;;8.80;6.57;;;4.10;99.90;;;;;;5006984;28;20291;-78
2021/11/26 04:31:35;;;;;;;8.50;7.37;;;4.10;99.90;;;;;;5010342;28;20231;-78
2021/11/26 04:34:02;;;;;;;11.60;7.60;;;4.10;99.90;;;;;;5021364;28;20199;-78
2021/11/26 04:36:29;;;;;;;9.50;7.20;;;4.10;99.90;;;;;;5028199;28;20226;-78
2021/11/26 04:38:57;;;;;;;10.63;7.00;;;4.10;99.90;;;;;;5026252;28;20207;-77
2021/11/26 04:41:23;;;;;;;8.57;5.80;;;4.10;99.90;;;;;;5015717;28;20200;-78
2021/11/26 04:43:50;;;;;;;11.57;6.73;;;4.20;99.90;;;;;;5025232;28;20194;-77
2021/11/26 04:46:17;;;;;;;9.87;6.67;;;4.10;99.90;;;;;;5026916;28;20307;-78
2021/11/26 04:48:45;;;;;;;10.00;6.97;;;4.10;99.90;;;;;;5026912;28;20196;-76
2021/11/26 04:51:11;;;;;;;7.23;6.43;;;4.20;99.90;;;;;;5008142;28;20212;-78
2021/11/26 04:53:38;;;;;;;14.47;8.77;;;4.10;99.90;;;;;;5009178;28;20196;-79
2021/11/26 04:56:06;;;;;;;16.70;9.03;;;4.20;99.90;;;;;;5022435;28;20208;-78
2021/11/26 04:58:35;;;;;;;19.87;8.57;;;4.10;99.90;;;;;;5044650;28;20203;-77
2021/11/26 05:01:02;;;;;;;9.60;7.17;;;4.10;99.90;;;;;;5043869;28;20191;-77
2021/11/26 05:03:29;;;;;;;14.30;8.17;;;4.10;99.90;;;;;;5029605;28;20239;-77
2021/11/26 05:05:55;;;;;;;15.20;8.10;;;4.20;99.90;;;;;;5040210;28;20222;-77
2021/11/26 05:08:22;;;;;;;9.63;8.53;;;4.10;99.90;;;;;;5034960;28;20200;-78
2021/11/26 05:10:52;;;;;;;8.23;7.43;;;4.10;99.90;;;;;;5045322;28;20273;-77
2021/11/26 05:13:22;;;;;;;9.50;7.30;;;4.10;99.90;;;;;;5032676;28;20272;-78
2021/11/26 05:15:49;;;;;;;10.47;8.57;;;4.10;99.90;;;;;;5025742;28;20211;-77
2021/11/26 05:18:16;;;;;;;18.03;9.53;;;4.00;99.90;;;;;;5007791;28;20227;-79
2021/11/26 05:20:43;;;;;;;17.90;10.30;;;4.00;99.90;;;;;;5024297;28;20192;-77
2021/11/26 05:23:10;;;;;;;16.07;9.70;;;4.00;99.90;;;;;;5027568;28;20258;-79
2021/11/26 05:25:37;;;;;;;19.30;11.07;;;4.00;99.90;;;;;;5027475;28;20692;-77
2021/11/26 05:28:04;;;;;;;49.27;16.13;;;4.00;99.90;;;;;;5005752;28;20220;-79
2021/11/26 05:30:32;;;;;;;40.87;14.50;;;3.90;99.90;;;;;;5009985;28;20224;-79
2021/11/26 05:33:00;;;;;;;33.20;13.50;;;3.90;99.90;;;;;;5023102;28;20943;-79
2021/11/26 05:35:27;;;;;;;27.00;13.80;;;3.90;99.90;;;;;;5026891;28;20246;-78
2021/11/26 05:37:54;;;;;;;26.70;12.40;;;3.80;99.90;;;;;;5001951;28;20200;-78
2021/11/26 05:40:21;;;;;;;27.40;12.80;;;3.80;99.90;;;;;;5038391;28;20203;-78
2021/11/26 05:42:49;;;;;;;40.00;15.90;;;3.80;99.90;;;;;;5038621;28;20192;-76
2021/11/26 05:45:18;;;;;;;44.20;18.43;;;3.80;99.90;;;;;;5020679;28;20227;-78
2021/11/26 05:47:46;;;;;;;29.17;13.10;;;3.80;99.90;;;;;;5043542;28;20203;-77
2021/11/26 05:50:16;;;;;;;18.50;13.37;;;3.80;99.90;;;;;;5026904;28;20784;-78
2021/11/26 05:52:44;;;;;;;31.20;16.17;;;3.80;99.90;;;;;;5008014;28;20211;-77
2021/11/26 05:55:13;;;;;;;36.00;16.17;;;3.80;99.90;;;;;;5030567;28;20212;-78
2021/11/26 05:57:40;;;;;;;35.00;16.97;;;3.80;99.90;;;;;;5027481;28;20196;-77
2021/11/26 06:00:10;;;;;;;32.83;15.67;;;3.80;99.90;;;;;;5024279;28;20196;-78
2021/11/26 06:02:37;;;;;;;59.20;21.00;;;3.80;99.90;;;;;;5025382;28;20199;-77
2021/11/26 06:05:06;;;;;;;39.67;17.67;;;3.70;99.90;;;;;;5024521;28;20204;-78
2021/11/26 06:07:34;;;;;;;33.50;16.63;;;3.80;99.90;;;;;;5008910;28;20202;-78
2021/11/26 06:10:01;;;;;;;32.07;16.40;;;3.80;99.90;;;;;;5038854;28;20916;-79
2021/11/26 06:12:27;;;;;;;36.80;16.80;;;3.80;99.90;;;;;;5033074;28;20214;-78
2021/11/26 06:14:55;;;;;;;50.27;20.37;;;3.80;99.90;;;;;;5019768;28;20233;-79
2021/11/26 06:17:22;;;;;;;30.03;18.83;;;3.80;99.90;;;;;;5030620;28;20215;-78
2021/11/26 06:19:49;;;;;;;47.70;19.43;;;3.80;99.90;;;;;;5005707;28;20295;-77
2021/11/26 06:22:17;;;;;;;50.60;19.70;;;3.80;99.90;;;;;;5010373;28;20203;-79
2021/11/26 06:24:44;;;;;;;35.57;18.50;;;3.80;99.90;;;;;;5017353;28;20380;-83
2021/11/26 06:27:10;;;;;;;44.27;20.60;;;3.90;99.90;;;;;;5013178;28;20287;-81
2021/11/26 06:29:37;;;;;;;46.63;20.13;;;3.80;99.90;;;;;;5025248;28;20196;-76
2021/11/26 06:32:04;;;;;;;52.47;21.97;;;3.80;99.90;;;;;;5020490;28;20227;-78
2021/11/26 06:34:31;;;;;;;46.03;20.13;;;3.90;99.90;;;;;;5026765;28;20219;-75
2021/11/26 06:36:58;;;;;;;47.77;20.87;;;3.90;99.90;;;;;;5042963;28;20180;-79
2021/11/26 06:39:26;;;;;;;52.10;20.40;;;3.90;99.90;;;;;;5047058;28;20286;-78
2021/11/26 06:41:53;;;;;;;58.10;22.10;;;3.90;99.90;;;;;;5025531;28;20776;-78
2021/11/26 06:44:20;;;;;;;53.53;20.90;;;3.90;99.90;;;;;;5026230;28;20214;-78
2021/11/26 06:46:46;;;;;;;37.70;18.53;;;3.90;99.90;;;;;;5004785;28;20208;-80
2021/11/26 06:49:13;;;;;;;47.93;20.57;;;3.90;99.90;;;;;;5009477;28;20575;-78
2021/11/26 06:51:40;;;;;;;39.37;19.00;;;3.90;99.90;;;;;;5004917;28;20228;-75
2021/11/26 06:54:06;;;;;;;44.23;21.10;;;3.90;99.90;;;;;;5024854;28;20215;-77
2021/11/26 06:56:34;;;;;;;91.50;25.03;;;3.90;99.90;;;;;;5016006;28;20645;-78
2021/11/26 06:59:03;;;;;;;44.87;20.27;;;3.90;99.90;;;;;;5036591;28;20191;-79
2021/11/26 07:01:31;;;;;;;47.03;19.57;;;3.90;99.90;;;;;;5023874;28;20218;-78
2021/11/26 07:03:58;;;;;;;42.60;19.33;;;3.90;99.90;;;;;;5028192;28;20656;-78
2021/11/26 07:06:26;;;;;;;46.47;20.50;;;4.00;99.90;;;;;;5026882;28;20248;-75
2021/11/26 07:08:52;;;;;;;48.83;20.43;;;4.00;99.90;;;;;;5011505;28;20192;-77
2021/11/26 07:11:19;;;;;;;56.17;22.30;;;4.00;99.90;;;;;;5027254;28;20275;-78
2021/11/26 07:13:47;;;;;;;38.77;18.40;;;4.00;99.90;;;;;;5038789;28;20193;-77
2021/11/26 07:16:14;;;;;;;43.13;20.80;;;4.00;99.90;;;;;;5050238;28;20225;-78
2021/11/26 07:18:40;;;;;;;47.10;20.27;;;4.00;99.90;;;;;;5029238;28;20230;-77
2021/11/26 07:21:07;;;;;;;35.73;18.17;;;4.00;99.90;;;;;;5028896;28;20532;-77
2021/11/26 07:23:34;;;;;;;47.47;20.03;;;4.00;99.90;;;;;;5009537;28;20200;-75
2021/11/26 07:26:00;;;;;;;51.30;19.80;;;4.00;99.90;;;;;;5011037;28;20226;-77
2021/11/26 07:28:27;;;;;;;42.77;19.17;;;4.00;99.90;;;;;;5024296;28;20211;-76
2021/11/26 07:30:55;;;;;;;44.73;19.93;;;4.00;99.90;;;;;;5027931;28;20212;-77
2021/11/26 07:33:22;;;;;;;67.07;22.67;;;4.00;99.90;;;;;;5028438;28;20214;-76
2021/11/26 07:35:49;;;;;;;34.73;16.53;;;4.10;99.90;;;;;;5026940;28;20208;-78
2021/11/26 07:38:16;;;;;;;39.90;17.30;;;4.10;99.90;;;;;;5027440;28;20192;-76
2021/11/26 07:40:42;;;;;;;42.77;18.60;;;4.10;99.90;;;;;;5026007;28;20267;-78
2021/11/26 07:43:09;;;;;;;42.03;16.23;;;4.10;99.90;;;;;;5026606;28;20207;-76
2021/11/26 07:45:36;;;;;;;55.80;19.30;;;4.10;99.90;;;;;;5025628;28;20309;-77
2021/11/26 07:48:04;;;;;;;29.77;15.37;;;4.10;99.90;;;;;;5028197;28;20206;-78
2021/11/26 07:50:32;;;;;;;52.37;19.17;;;4.10;99.90;;;;;;5024918;28;20204;-78
2021/11/26 07:52:58;;;;;;;34.03;16.60;;;4.10;99.90;;;;;;5033832;28;20203;-78
2021/11/26 07:55:25;;;;;;;34.03;16.37;;;4.10;99.90;;;;;;5045158;28;20213;-78
2021/11/26 07:57:52;;;;;;;34.43;15.70;;;4.10;99.90;;;;;;5026085;28;20200;-78
2021/11/26 08:00:19;;;;;;;50.60;18.27;;;4.20;99.90;;;;;;5039680;28;20442;-77
2021/11/26 08:02:45;;;;;;;28.10;13.80;;;4.20;99.90;;;;;;5024036;28;20199;-77
2021/11/26 08:05:14;;;;;;;47.50;16.97;;;4.20;99.90;;;;;;5028670;28;20330;-78
2021/11/26 08:07:40;;;;;;;36.17;16.10;;;4.20;99.90;;;;;;5013006;28;20764;-77
2021/11/26 08:10:09;;;;;;;27.73;14.47;;;4.20;99.90;;;;;;5022513;28;20208;-77
2021/11/26 08:12:38;;;;;;;23.67;13.10;;;4.20;99.90;;;;;;5027720;28;20224;-77
2021/11/26 08:15:06;;;;;;;33.53;15.57;;;4.20;99.90;;;;;;5026215;28;20705;-77
2021/11/26 08:17:33;;;;;;;34.73;15.97;;;4.20;99.90;;;;;;5029647;28;20200;-76
2021/11/26 08:20:00;;;;;;;37.57;15.33;;;4.30;99.90;;;;;;5028297;28;20207;-79
2021/11/26 08:22:28;;;;;;;48.53;17.30;;;4.30;99.90;;;;;;5028158;28;20308;-75
2021/11/26 08:24:55;;;;;;;38.83;16.23;;;4.30;99.90;;;;;;5025292;28;20370;-79
2021/11/26 08:27:21;;;;;;;41.43;15.07;;;4.30;99.90;;;;;;5022859;28;20203;-78
2021/11/26 08:29:48;;;;;;;42.10;17.20;;;4.40;99.90;;;;;;5021526;28;20211;-78
2021/11/26 08:32:15;;;;;;;39.57;16.13;;;4.40;99.90;;;;;;5037911;28;20211;-78
2021/11/26 08:34:42;;;;;;;33.77;13.60;;;4.40;99.90;;;;;;5003761;28;20429;-79
2021/11/26 08:37:09;;;;;;;39.77;15.93;;;4.40;99.90;;;;;;5024139;28;20210;-79
2021/11/26 08:39:36;;;;;;;28.90;13.13;;;4.40;99.90;;;;;;5004004;28;20207;-78
2021/11/26 08:42:04;;;;;;;26.33;11.03;;;4.40;99.90;;;;;;5027479;28;20203;-79
2021/11/26 08:44:32;;;;;;;26.07;12.40;;;4.40;99.90;;;;;;5018634;28;20577;-78
2021/11/26 08:46:59;;;;;;;19.17;11.23;;;4.50;99.90;;;;;;5014950;28;20212;-80
2021/11/26 08:49:26;;;;;;;19.63;11.67;;;4.50;99.90;;;;;;5021440;28;20211;-79
2021/11/26 08:51:54;;;;;;;31.20;12.93;;;4.50;99.90;;;;;;5010837;28;20326;-79
2021/11/26 08:54:24;;;;;;;29.37;13.10;;;4.50;99.90;;;;;;5007072;28;20239;-80
2021/11/26 08:56:55;;;;;;;24.47;12.87;;;4.50;99.90;;;;;;5020766;28;20202;-80
2021/11/26 08:59:23;;;;;;;26.03;13.37;;;4.50;99.90;;;;;;5029933;28;20250;-79
2021/11/26 09:01:51;;;;;;;31.43;13.30;;;4.50;99.90;;;;;;5015336;28;20212;-79
2021/11/26 09:04:20;;;;;;;31.63;14.20;;;4.50;99.90;;;;;;5028206;28;20192;-79
2021/11/26 09:06:48;;;;;;;20.43;11.93;;;4.60;99.90;;;;;;5021661;28;20223;-79
2021/11/26 09:09:15;;;;;;;23.70;11.97;;;4.60;99.90;;;;;;4994841;28;20973;-80
2021/11/26 09:11:42;;;;;;;19.70;12.00;;;4.60;99.90;;;;;;5022349;28;20223;-80
2021/11/26 09:14:10;;;;;;;23.30;12.13;;;4.60;99.90;;;;;;5020642;28;20262;-80
2021/11/26 09:16:37;;;;;;;32.17;12.67;;;4.60;99.90;;;;;;5003333;28;20223;-77
2021/11/26 09:19:05;;;;;;;23.90;11.00;;;4.60;99.90;;;;;;5014151;28;20303;-78
2021/11/26 09:21:32;;;;;;;20.50;11.67;;;4.60;99.90;;;;;;5029705;28;20211;-79
2021/11/26 09:24:00;;;;;;;39.93;13.00;;;4.60;99.90;;;;;;4997195;28;20213;-79
2021/11/26 09:26:27;;;;;;;26.50;11.37;;;4.60;99.90;;;;;;5012593;28;20281;-78
2021/11/26 09:28:54;;;;;;;20.50;12.17;;;4.60;99.90;;;;;;5019322;28;20194;-79
2021/11/26 09:31:24;;;;;;;41.23;15.10;;;4.60;99.90;;;;;;4995669;28;20590;-80
2021/11/26 09:33:52;;;;;;;20.83;11.13;;;4.70;99.90;;;;;;5004125;28;20192;-80
2021/11/26 09:36:22;;;;;;;19.23;10.97;;;4.70;99.90;;;;;;5021636;28;20227;-83
2021/11/26 09:38:49;;;;;;;32.70;12.63;;;4.70;99.90;;;;;;5020674;28;20920;-82
2021/11/26 09:41:16;;;;;;;30.93;12.93;;;4.70;99.90;;;;;;5004992;28;20282;-79
2021/11/26 09:43:45;;;;;;;20.87;9.90;;;4.70;99.90;;;;;;5011093;28;22170;-79
2021/11/26 09:46:12;;;;;;;18.47;10.70;;;4.70;99.90;;;;;;5005470;28;20232;-78
2021/11/26 09:48:40;;;;;;;21.40;11.83;;;4.80;99.90;;;;;;5025959;28;20976;-79
2021/11/26 09:51:06;;;;;;;27.37;11.53;;;4.80;99.90;;;;;;5015914;28;20206;-79
2021/11/26 09:53:34;;;;;;;29.63;11.73;;;4.80;99.90;;;;;;5022219;28;20206;-79
2021/11/26 09:56:04;;;;;;;25.07;10.73;;;4.80;99.90;;;;;;5026417;28;20588;-79
2021/11/26 09:58:32;;;;;;;18.27;11.07;;;4.90;99.90;;;;;;5023249;28;20204;-82
2021/11/26 10:01:03;;;;;;;18.50;10.23;;;4.90;99.90;;;;;;5024004;28;20265;-80
2021/11/26 10:03:40;;;;;;;20.50;9.87;;;5.00;99.90;;;;;;5026665;28;20330;-79
2021/11/26 10:06:19;;;;;;;32.77;11.07;;;5.00;99.90;;;;;;5025195;28;20220;-80
2021/11/26 10:08:56;;;;;;;22.13;10.97;;;5.10;99.90;;;;;;5020185;28;20342;-81
2021/11/26 10:11:25;;;;;;;23.87;9.80;;;5.10;99.90;;;;;;5019750;28;20207;-79
2021/11/26 10:13:52;;;;;;;29.23;10.27;;;5.10;99.90;;;;;;5020818;28;20207;-79
2021/11/26 10:16:19;;;;;;;22.40;9.93;;;5.10;99.90;;;;;;5008034;28;20223;-78
2021/11/26 10:18:47;;;;;;;23.83;10.43;;;5.10;99.90;;;;;;5011657;28;20247;-79
2021/11/26 10:21:16;;;;;;;19.87;9.67;;;5.10;99.90;;;;;;5027734;28;20207;-80
2021/11/26 10:23:45;;;;;;;26.27;10.47;;;5.10;99.90;;;;;;5005233;28;20944;-79
2021/11/26 10:26:14;;;;;;;17.53;8.23;;;5.10;99.90;;;;;;5025344;28;20226;-80
2021/11/26 10:28:44;;;;;;;25.53;10.83;;;5.10;99.90;;;;;;5020379;28;20977;-80
2021/11/26 10:31:20;;;;;;;20.27;9.90;;;5.10;99.90;;;;;;5018204;28;20246;-80
2021/11/26 10:33:46;;;;;;;16.87;7.60;;;5.10;99.90;;;;;;5002817;28;20192;-80
2021/11/26 10:36:14;;;;;;;19.93;8.87;;;5.10;99.90;;;;;;5037510;28;20227;-79
2021/11/26 10:38:41;;;;;;;10.73;6.80;;;5.10;99.90;;;;;;5034427;28;20188;-79
2021/11/26 10:41:12;;;;;;;18.97;9.20;;;5.20;99.90;;;;;;5008288;28;20214;-80
2021/11/26 10:43:49;;;;;;;22.60;9.17;;;5.20;99.90;;;;;;5021605;28;20219;-80
2021/11/26 10:49:19;;;;;;;12.13;7.17;;;5.20;99.90;;;;;;5017749;28;20230;-81
2021/11/26 11:00:12;;;;;;;12.33;7.23;;;5.30;99.90;;;;;;5024676;28;20211;-80
2021/11/26 11:02:43;;;;;;;10.47;7.03;;;5.30;99.90;;;;;;5030372;28;20298;-81
2021/11/26 11:05:12;;;;;;;12.93;7.83;;;5.30;99.90;;;;;;5022313;28;20227;-80
2021/11/26 11:07:44;;;;;;;10.13;6.73;;;5.30;99.90;;;;;;5021712;28;20234;-81
2021/11/26 11:10:14;;;;;;;18.60;8.13;;;5.30;99.90;;;;;;5027681;28;20565;-82
2021/11/26 11:12:43;;;;;;;16.27;8.77;;;5.30;99.90;;;;;;5022066;28;20254;-80
2021/11/26 11:15:11;;;;;;;13.40;8.50;;;5.30;99.90;;;;;;5017023;28;20215;-81
2021/11/26 11:17:39;;;;;;;22.33;10.83;;;5.30;99.90;;;;;;5002726;28;20204;-80
2021/11/26 11:20:09;;;;;;;11.70;7.37;;;5.30;99.90;;;;;;5019297;28;20200;-80
2021/11/26 11:22:36;;;;;;;19.77;8.37;;;5.30;99.90;;;;;;5024276;28;20214;-80
2021/11/26 11:25:08;;;;;;;13.10;7.17;;;5.30;99.90;;;;;;5008184;28;20576;-79
2021/11/26 11:27:35;;;;;;;24.10;9.23;;;5.30;99.90;;;;;;5018208;28;20619;-78
2021/11/26 11:30:03;;;;;;;18.93;8.73;;;5.30;99.90;;;;;;5002073;28;20204;-82
2021/11/26 11:32:30;;;;;;;19.57;8.53;;;5.30;99.90;;;;;;5002459;28;20226;-81
2021/11/26 11:34:58;;;;;;;21.97;9.70;;;5.40;99.90;;;;;;5007997;28;20616;-80
2021/11/26 11:37:28;;;;;;;20.33;9.77;;;5.40;99.90;;;;;;4994758;28;20212;-79
2021/11/26 11:39:58;;;;;;;12.90;7.30;;;5.40;99.90;;;;;;5015628;28;20195;-83
2021/11/26 11:42:28;;;;;;;16.87;9.13;;;5.40;99.90;;;;;;5025595;28;20193;-83
2021/11/26 11:44:59;;;;;;;13.53;7.77;;;5.40;99.90;;;;;;5002197;28;20230;-82
2021/11/26 11:47:27;;;;;;;16.23;8.30;;;5.40;99.90;;;;;;5001743;28;20202;-82
2021/11/26 11:50:06;;;;;;;13.63;7.70;;;5.40;99.90;;;;;;5019626;28;20632;-83
2021/11/26 11:52:44;;;;;;;17.73;9.47;;;5.50;99.90;;;;;;4991281;28;20223;-83
2021/11/26 11:55:19;;;;;;;15.73;8.73;;;5.50;99.90;;;;;;5026056;28;20226;-81
2021/11/26 11:57:48;;;;;;;21.70;9.60;;;5.50;99.90;;;;;;5001936;28;20207;-83
2021/11/26 12:00:17;;;;;;;14.00;8.20;;;5.50;99.90;;;;;;5014082;28;20215;-81
2021/11/26 12:02:45;;;;;;;15.80;7.77;;;5.50;99.90;;;;;;5021879;28;20184;-81
2021/11/26 12:05:24;;;;;;;21.77;9.33;;;5.50;99.90;;;;;;5017245;28;20864;-82
2021/11/26 12:08:03;;;;;;;17.30;8.63;;;5.50;99.90;;;;;;4989633;28;20219;-82
2021/11/26 12:10:29;;;;;;;12.67;7.73;;;5.60;99.90;;;;;;5014828;28;20242;-82
2021/11/26 12:12:58;;;;;;;12.43;7.27;;;5.60;99.90;;;;;;5013227;28;20220;-84
2021/11/26 12:15:31;;;;;;;11.40;7.30;;;5.60;99.90;;;;;;5019170;28;20223;-82
2021/11/26 12:18:00;;;;;;;14.13;7.60;;;5.60;99.90;;;;;;5008116;28;20215;-83
2021/11/26 12:20:28;;;;;;;22.20;9.03;;;5.60;99.90;;;;;;5025433;28;20197;-82
2021/11/26 12:22:58;;;;;;;23.37;8.20;;;5.70;99.90;;;;;;5036419;28;20201;-82
2021/11/26 12:25:36;;;;;;;17.80;9.40;;;5.70;99.90;;;;;;5020575;28;20838;-82
2021/11/26 12:28:07;;;;;;;20.53;8.23;;;5.70;99.90;;;;;;5029080;28;20238;-83
2021/11/26 12:30:34;;;;;;;18.20;8.23;;;5.70;99.90;;;;;;5001832;28;20298;-83
2021/11/26 12:33:15;;;;;;;14.13;7.80;;;5.70;99.90;;;;;;5017464;28;20322;-84
2021/11/26 12:35:54;;;;;;;15.03;8.27;;;5.70;99.90;;;;;;5027616;28;20220;-83
2021/11/26 12:38:20;;;;;;;16.43;9.23;;;5.70;99.90;;;;;;4997714;28;20219;-82
2021/11/26 12:40:47;;;;;;;16.83;9.17;;;5.70;99.90;;;;;;5025929;28;20653;-81
2021/11/26 12:43:15;;;;;;;17.50;9.10;;;5.70;99.90;;;;;;5014931;28;20193;-82
2021/11/26 12:45:42;;;;;;;17.70;8.63;;;5.80;99.90;;;;;;5021483;28;20295;-81
2021/11/26 12:48:10;;;;;;;17.73;8.70;;;5.80;99.90;;;;;;5018427;28;20200;-84
2021/11/26 12:53:25;;;;;;;14.03;8.50;;;5.80;99.90;;;;;;4999077;28;20224;-84
2021/11/26 12:55:55;;;;;;;18.03;9.00;;;5.80;99.90;;;;;;5019221;28;20824;-83
2021/11/26 12:58:24;;;;;;;15.73;9.17;;;5.80;99.90;;;;;;5035584;28;20204;-82
2021/11/26 13:00:55;;;;;;;19.30;9.27;;;5.80;99.90;;;;;;5024089;28;20218;-82
2021/11/26 13:03:22;;;;;;;16.63;8.87;;;5.80;99.90;;;;;;5014798;28;20207;-82
2021/11/26 13:05:53;;;;;;;16.07;9.33;;;5.80;99.90;;;;;;5031053;28;20227;-82